sensor_id;sensor_type;location;lat;lon;timestamp;P1;durP1;ratioP1;P2;durP2;ratioP2
15246;SDS011;7726;48.820;9.248;2024-02-14T00:02:10;6.57;;;4.43;;
15246;SDS011;7726;48.820;9.248;2024-02-14T00:04:37;6.67;;;4.63;;
15246;SDS011;7726;48.820;9.248;2024-02-14T00:07:05;9.23;;;6.37;;
15246;SDS011;7726;48.820;9.248;2024-02-14T00:09:33;8.47;;;5.30;;
15246;SDS011;7726;48.820;9.248;2024-02-14T00:12:00;7.67;;;5.47;;
15246;SDS011;7726;48.820;9.248;2024-02-14T00:14:27;6.40;;;5.00;;
15246;SDS011;7726;48.820;9.248;2024-02-14T00:16:54;6.50;;;5.10;;
15246;SDS011;7726;48.820;9.248;2024-02-14T00:19:23;5.97;;;4.73;;
15246;SDS011;7726;48.820;9.248;2024-02-14T00:21:50;10.27;;;5.50;;
15246;SDS011;7726;48.820;9.248;2024-02-14T00:24:18;10.17;;;5.53;;
15246;SDS011;7726;48.820;9.248;2024-02-14T00:26:46;7.17;;;5.30;;
15246;SDS011;7726;48.820;9.248;2024-02-14T00:29:14;6.77;;;4.77;;
15246;SDS011;7726;48.820;9.248;2024-02-14T00:31:41;6.30;;;4.83;;
15246;SDS011;7726;48.820;9.248;2024-02-14T00:34:09;6.27;;;4.63;;
15246;SDS011;7726;48.820;9.248;2024-02-14T00:36:37;7.63;;;5.23;;
15246;SDS011;7726;48.820;9.248;2024-02-14T00:39:04;7.07;;;4.77;;
15246;SDS011;7726;48.820;9.248;2024-02-14T00:41:35;5.60;;;4.70;;
15246;SDS011;7726;48.820;9.248;2024-02-14T00:44:02;8.17;;;5.13;;
15246;SDS011;7726;48.820;9.248;2024-02-14T00:46:29;6.17;;;5.10;;
15246;SDS011;7726;48.820;9.248;2024-02-14T00:48:56;8.43;;;4.83;;
15246;SDS011;7726;48.820;9.248;2024-02-14T00:51:24;8.60;;;5.17;;
15246;SDS011;7726;48.820;9.248;2024-02-14T00:53:51;7.87;;;5.90;;
15246;SDS011;7726;48.820;9.248;2024-02-14T00:56:19;9.97;;;5.27;;
15246;SDS011;7726;48.820;9.248;2024-02-14T00:58:49;7.57;;;5.33;;
15246;SDS011;7726;48.820;9.248;2024-02-14T01:01:16;7.63;;;5.20;;
15246;SDS011;7726;48.820;9.248;2024-02-14T01:03:44;6.27;;;4.87;;
15246;SDS011;7726;48.820;9.248;2024-02-14T01:06:11;7.83;;;5.23;;
15246;SDS011;7726;48.820;9.248;2024-02-14T01:08:39;9.03;;;5.03;;
15246;SDS011;7726;48.820;9.248;2024-02-14T01:11:06;7.13;;;4.67;;
15246;SDS011;7726;48.820;9.248;2024-02-14T01:13:33;7.40;;;4.50;;
15246;SDS011;7726;48.820;9.248;2024-02-14T01:16:02;9.23;;;4.13;;
15246;SDS011;7726;48.820;9.248;2024-02-14T01:18:30;7.63;;;5.10;;
15246;SDS011;7726;48.820;9.248;2024-02-14T01:20:57;7.40;;;4.37;;
15246;SDS011;7726;48.820;9.248;2024-02-14T01:23:25;7.37;;;4.47;;
15246;SDS011;7726;48.820;9.248;2024-02-14T01:25:53;6.30;;;4.43;;
15246;SDS011;7726;48.820;9.248;2024-02-14T01:28:20;8.93;;;4.43;;
15246;SDS011;7726;48.820;9.248;2024-02-14T01:30:47;7.20;;;4.70;;
15246;SDS011;7726;48.820;9.248;2024-02-14T01:33:16;6.13;;;4.53;;
15246;SDS011;7726;48.820;9.248;2024-02-14T01:35:43;5.57;;;4.40;;
15246;SDS011;7726;48.820;9.248;2024-02-14T01:38:11;7.27;;;4.43;;
15246;SDS011;7726;48.820;9.248;2024-02-14T01:40:38;5.17;;;4.17;;
15246;SDS011;7726;48.820;9.248;2024-02-14T01:43:05;6.53;;;3.77;;
15246;SDS011;7726;48.820;9.248;2024-02-14T01:45:31;5.23;;;4.03;;
15246;SDS011;7726;48.820;9.248;2024-02-14T01:47:59;5.10;;;4.00;;
15246;SDS011;7726;48.820;9.248;2024-02-14T01:50:28;6.70;;;3.70;;
15246;SDS011;7726;48.820;9.248;2024-02-14T01:52:57;6.73;;;4.00;;
15246;SDS011;7726;48.820;9.248;2024-02-14T01:55:25;4.63;;;3.40;;
15246;SDS011;7726;48.820;9.248;2024-02-14T01:57:53;4.83;;;3.60;;
15246;SDS011;7726;48.820;9.248;2024-02-14T02:00:21;2.87;;;2.63;;
15246;SDS011;7726;48.820;9.248;2024-02-14T02:02:48;3.80;;;2.83;;
15246;SDS011;7726;48.820;9.248;2024-02-14T02:05:15;4.60;;;2.83;;
15246;SDS011;7726;48.820;9.248;2024-02-14T02:07:45;6.00;;;2.90;;
15246;SDS011;7726;48.820;9.248;2024-02-14T02:10:13;3.40;;;2.87;;
15246;SDS011;7726;48.820;9.248;2024-02-14T02:12:40;3.80;;;2.97;;
15246;SDS011;7726;48.820;9.248;2024-02-14T02:15:08;5.77;;;2.80;;
15246;SDS011;7726;48.820;9.248;2024-02-14T02:17:37;5.13;;;2.97;;
15246;SDS011;7726;48.820;9.248;2024-02-14T02:20:06;5.23;;;3.00;;
15246;SDS011;7726;48.820;9.248;2024-02-14T02:22:34;6.87;;;3.00;;
15246;SDS011;7726;48.820;9.248;2024-02-14T02:25:03;4.60;;;2.60;;
15246;SDS011;7726;48.820;9.248;2024-02-14T02:27:32;3.73;;;2.70;;
15246;SDS011;7726;48.820;9.248;2024-02-14T02:30:03;6.30;;;2.80;;
15246;SDS011;7726;48.820;9.248;2024-02-14T02:32:30;4.80;;;2.87;;
15246;SDS011;7726;48.820;9.248;2024-02-14T02:34:57;3.70;;;2.70;;
15246;SDS011;7726;48.820;9.248;2024-02-14T02:37:25;4.13;;;2.60;;
15246;SDS011;7726;48.820;9.248;2024-02-14T02:39:53;3.80;;;2.70;;
15246;SDS011;7726;48.820;9.248;2024-02-14T02:42:22;2.90;;;2.60;;
15246;SDS011;7726;48.820;9.248;2024-02-14T02:44:50;4.97;;;2.80;;
15246;SDS011;7726;48.820;9.248;2024-02-14T02:47:17;4.77;;;2.70;;
15246;SDS011;7726;48.820;9.248;2024-02-14T02:49:44;3.63;;;2.57;;
15246;SDS011;7726;48.820;9.248;2024-02-14T02:52:11;4.20;;;2.77;;
15246;SDS011;7726;48.820;9.248;2024-02-14T02:54:39;3.93;;;2.67;;
15246;SDS011;7726;48.820;9.248;2024-02-14T02:57:09;5.17;;;2.87;;
15246;SDS011;7726;48.820;9.248;2024-02-14T02:59:37;4.30;;;2.83;;
15246;SDS011;7726;48.820;9.248;2024-02-14T03:02:07;4.53;;;3.10;;
15246;SDS011;7726;48.820;9.248;2024-02-14T03:04:37;5.40;;;3.17;;
15246;SDS011;7726;48.820;9.248;2024-02-14T03:07:04;4.43;;;2.70;;
15246;SDS011;7726;48.820;9.248;2024-02-14T03:09:33;3.80;;;2.97;;
15246;SDS011;7726;48.820;9.248;2024-02-14T03:12:01;6.20;;;2.97;;
15246;SDS011;7726;48.820;9.248;2024-02-14T03:14:29;4.83;;;2.70;;
15246;SDS011;7726;48.820;9.248;2024-02-14T03:16:58;7.20;;;3.27;;
15246;SDS011;7726;48.820;9.248;2024-02-14T03:19:26;4.83;;;2.90;;
15246;SDS011;7726;48.820;9.248;2024-02-14T03:21:53;2.70;;;2.50;;
15246;SDS011;7726;48.820;9.248;2024-02-14T03:24:20;6.47;;;3.20;;
15246;SDS011;7726;48.820;9.248;2024-02-14T03:26:50;4.47;;;3.07;;
15246;SDS011;7726;48.820;9.248;2024-02-14T03:29:18;4.30;;;2.83;;
15246;SDS011;7726;48.820;9.248;2024-02-14T03:31:45;6.70;;;3.40;;
15246;SDS011;7726;48.820;9.248;2024-02-14T03:34:14;5.67;;;3.50;;
15246;SDS011;7726;48.820;9.248;2024-02-14T03:36:41;4.30;;;3.40;;
15246;SDS011;7726;48.820;9.248;2024-02-14T03:39:09;5.13;;;3.93;;
15246;SDS011;7726;48.820;9.248;2024-02-14T03:41:36;6.77;;;3.63;;
15246;SDS011;7726;48.820;9.248;2024-02-14T03:44:04;3.87;;;3.47;;
15246;SDS011;7726;48.820;9.248;2024-02-14T03:46:33;6.13;;;3.80;;
15246;SDS011;7726;48.820;9.248;2024-02-14T03:49:01;6.13;;;4.20;;
15246;SDS011;7726;48.820;9.248;2024-02-14T03:51:29;5.47;;;3.80;;
15246;SDS011;7726;48.820;9.248;2024-02-14T03:53:57;5.40;;;4.43;;
15246;SDS011;7726;48.820;9.248;2024-02-14T03:56:24;7.33;;;4.07;;
15246;SDS011;7726;48.820;9.248;2024-02-14T03:58:52;5.90;;;3.77;;
15246;SDS011;7726;48.820;9.248;2024-02-14T04:01:19;7.70;;;3.93;;
15246;SDS011;7726;48.820;9.248;2024-02-14T04:03:46;6.97;;;3.70;;
15246;SDS011;7726;48.820;9.248;2024-02-14T04:06:14;7.13;;;3.53;;
15246;SDS011;7726;48.820;9.248;2024-02-14T04:08:43;5.47;;;3.40;;
15246;SDS011;7726;48.820;9.248;2024-02-14T04:11:10;6.33;;;3.33;;
15246;SDS011;7726;48.820;9.248;2024-02-14T04:13:38;4.47;;;3.20;;
15246;SDS011;7726;48.820;9.248;2024-02-14T04:16:06;3.80;;;3.00;;
15246;SDS011;7726;48.820;9.248;2024-02-14T04:18:33;5.17;;;2.77;;
15246;SDS011;7726;48.820;9.248;2024-02-14T04:21:00;5.87;;;3.03;;
15246;SDS011;7726;48.820;9.248;2024-02-14T04:23:29;4.83;;;3.30;;
15246;SDS011;7726;48.820;9.248;2024-02-14T04:25:57;5.20;;;3.10;;
15246;SDS011;7726;48.820;9.248;2024-02-14T04:28:24;4.37;;;2.77;;
15246;SDS011;7726;48.820;9.248;2024-02-14T04:30:51;2.53;;;2.33;;
15246;SDS011;7726;48.820;9.248;2024-02-14T04:33:20;3.50;;;2.80;;
15246;SDS011;7726;48.820;9.248;2024-02-14T04:35:47;3.37;;;2.40;;
15246;SDS011;7726;48.820;9.248;2024-02-14T04:38:15;5.53;;;3.23;;
15246;SDS011;7726;48.820;9.248;2024-02-14T04:40:43;4.07;;;2.73;;
15246;SDS011;7726;48.820;9.248;2024-02-14T04:43:12;3.30;;;2.80;;
15246;SDS011;7726;48.820;9.248;2024-02-14T04:45:39;6.10;;;3.17;;
15246;SDS011;7726;48.820;9.248;2024-02-14T04:48:06;4.23;;;2.70;;
15246;SDS011;7726;48.820;9.248;2024-02-14T04:50:34;4.10;;;2.87;;
15246;SDS011;7726;48.820;9.248;2024-02-14T04:53:02;3.30;;;2.97;;
15246;SDS011;7726;48.820;9.248;2024-02-14T04:55:35;4.43;;;2.97;;
15246;SDS011;7726;48.820;9.248;2024-02-14T04:58:02;5.53;;;2.80;;
15246;SDS011;7726;48.820;9.248;2024-02-14T05:00:31;2.90;;;2.60;;
15246;SDS011;7726;48.820;9.248;2024-02-14T05:02:58;4.30;;;2.80;;
15246;SDS011;7726;48.820;9.248;2024-02-14T05:05:26;3.53;;;2.90;;
15246;SDS011;7726;48.820;9.248;2024-02-14T05:07:53;3.97;;;2.80;;
15246;SDS011;7726;48.820;9.248;2024-02-14T05:10:20;5.10;;;2.80;;
15246;SDS011;7726;48.820;9.248;2024-02-14T05:12:47;3.17;;;2.83;;
15246;SDS011;7726;48.820;9.248;2024-02-14T05:15:15;3.67;;;2.93;;
15246;SDS011;7726;48.820;9.248;2024-02-14T05:17:43;3.47;;;2.50;;
15246;SDS011;7726;48.820;9.248;2024-02-14T05:20:11;4.80;;;2.93;;
15246;SDS011;7726;48.820;9.248;2024-02-14T05:22:38;2.63;;;2.43;;
15246;SDS011;7726;48.820;9.248;2024-02-14T05:25:05;3.90;;;2.43;;
15246;SDS011;7726;48.820;9.248;2024-02-14T05:27:34;3.97;;;2.97;;
15246;SDS011;7726;48.820;9.248;2024-02-14T05:30:01;4.30;;;2.70;;
15246;SDS011;7726;48.820;9.248;2024-02-14T05:32:30;4.30;;;3.10;;
15246;SDS011;7726;48.820;9.248;2024-02-14T05:34:59;3.73;;;2.47;;
15246;SDS011;7726;48.820;9.248;2024-02-14T05:37:26;5.57;;;3.10;;
15246;SDS011;7726;48.820;9.248;2024-02-14T05:39:53;5.97;;;3.03;;
15246;SDS011;7726;48.820;9.248;2024-02-14T05:42:21;4.00;;;2.93;;
15246;SDS011;7726;48.820;9.248;2024-02-14T05:44:48;3.33;;;3.03;;
15246;SDS011;7726;48.820;9.248;2024-02-14T05:47:17;4.20;;;3.10;;
15246;SDS011;7726;48.820;9.248;2024-02-14T05:49:44;3.10;;;2.63;;
15246;SDS011;7726;48.820;9.248;2024-02-14T05:52:13;4.47;;;2.80;;
15246;SDS011;7726;48.820;9.248;2024-02-14T05:54:41;5.67;;;3.07;;
15246;SDS011;7726;48.820;9.248;2024-02-14T05:57:08;3.17;;;2.80;;
15246;SDS011;7726;48.820;9.248;2024-02-14T05:59:35;5.27;;;3.30;;
15246;SDS011;7726;48.820;9.248;2024-02-14T06:02:03;6.37;;;3.70;;
15246;SDS011;7726;48.820;9.248;2024-02-14T06:04:31;4.10;;;2.90;;
15246;SDS011;7726;48.820;9.248;2024-02-14T06:06:58;5.83;;;3.40;;
15246;SDS011;7726;48.820;9.248;2024-02-14T06:09:26;4.23;;;3.20;;
15246;SDS011;7726;48.820;9.248;2024-02-14T06:11:54;3.23;;;2.93;;
15246;SDS011;7726;48.820;9.248;2024-02-14T06:14:21;4.90;;;3.33;;
15246;SDS011;7726;48.820;9.248;2024-02-14T06:16:48;5.07;;;3.10;;
15246;SDS011;7726;48.820;9.248;2024-02-14T06:19:15;6.93;;;3.17;;
15246;SDS011;7726;48.820;9.248;2024-02-14T06:21:42;5.87;;;3.53;;
15246;SDS011;7726;48.820;9.248;2024-02-14T06:24:10;6.70;;;3.87;;
15246;SDS011;7726;48.820;9.248;2024-02-14T06:26:39;5.10;;;3.70;;
15246;SDS011;7726;48.820;9.248;2024-02-14T06:29:06;7.57;;;4.03;;
15246;SDS011;7726;48.820;9.248;2024-02-14T06:31:34;5.53;;;3.97;;
15246;SDS011;7726;48.820;9.248;2024-02-14T06:34:01;5.23;;;3.87;;
15246;SDS011;7726;48.820;9.248;2024-02-14T06:36:28;6.10;;;3.73;;
15246;SDS011;7726;48.820;9.248;2024-02-14T06:38:55;6.80;;;3.70;;
15246;SDS011;7726;48.820;9.248;2024-02-14T06:41:22;7.50;;;3.30;;
15246;SDS011;7726;48.820;9.248;2024-02-14T06:43:51;4.53;;;3.13;;
15246;SDS011;7726;48.820;9.248;2024-02-14T06:46:18;4.33;;;3.03;;
15246;SDS011;7726;48.820;9.248;2024-02-14T06:48:45;3.43;;;3.00;;
15246;SDS011;7726;48.820;9.248;2024-02-14T06:51:12;5.70;;;3.10;;
15246;SDS011;7726;48.820;9.248;2024-02-14T06:53:40;3.77;;;3.30;;
15246;SDS011;7726;48.820;9.248;2024-02-14T06:56:07;3.87;;;2.80;;
15246;SDS011;7726;48.820;9.248;2024-02-14T06:58:34;6.47;;;3.33;;
15246;SDS011;7726;48.820;9.248;2024-02-14T07:01:03;3.80;;;3.37;;
15246;SDS011;7726;48.820;9.248;2024-02-14T07:03:30;4.13;;;3.00;;
15246;SDS011;7726;48.820;9.248;2024-02-14T07:05:57;4.33;;;3.30;;
15246;SDS011;7726;48.820;9.248;2024-02-14T07:08:24;4.17;;;2.87;;
15246;SDS011;7726;48.820;9.248;2024-02-14T07:10:53;3.67;;;2.90;;
15246;SDS011;7726;48.820;9.248;2024-02-14T07:13:21;4.43;;;2.70;;
15246;SDS011;7726;48.820;9.248;2024-02-14T07:15:49;3.07;;;2.53;;
15246;SDS011;7726;48.820;9.248;2024-02-14T07:18:17;4.30;;;2.77;;
15246;SDS011;7726;48.820;9.248;2024-02-14T07:20:45;3.87;;;3.17;;
15246;SDS011;7726;48.820;9.248;2024-02-14T07:23:12;5.27;;;2.80;;
15246;SDS011;7726;48.820;9.248;2024-02-14T07:25:39;3.33;;;2.60;;
15246;SDS011;7726;48.820;9.248;2024-02-14T07:28:07;2.57;;;2.37;;
15246;SDS011;7726;48.820;9.248;2024-02-14T07:30:34;4.13;;;2.93;;
15246;SDS011;7726;48.820;9.248;2024-02-14T07:33:01;6.40;;;3.33;;
15246;SDS011;7726;48.820;9.248;2024-02-14T07:35:30;8.37;;;2.90;;
15246;SDS011;7726;48.820;9.248;2024-02-14T07:37:57;4.13;;;2.27;;
15246;SDS011;7726;48.820;9.248;2024-02-14T07:40:24;4.87;;;3.00;;
15246;SDS011;7726;48.820;9.248;2024-02-14T07:42:52;3.80;;;2.80;;
15246;SDS011;7726;48.820;9.248;2024-02-14T07:45:19;5.10;;;2.40;;
15246;SDS011;7726;48.820;9.248;2024-02-14T07:47:46;4.03;;;2.87;;
15246;SDS011;7726;48.820;9.248;2024-02-14T07:50:13;3.17;;;2.53;;
15246;SDS011;7726;48.820;9.248;2024-02-14T07:52:42;4.07;;;2.43;;
15246;SDS011;7726;48.820;9.248;2024-02-14T07:55:10;3.97;;;2.50;;
15246;SDS011;7726;48.820;9.248;2024-02-14T07:57:38;6.90;;;3.00;;
15246;SDS011;7726;48.820;9.248;2024-02-14T08:00:06;4.87;;;2.77;;
15246;SDS011;7726;48.820;9.248;2024-02-14T08:02:34;3.87;;;2.50;;
15246;SDS011;7726;48.820;9.248;2024-02-14T08:05:02;5.37;;;2.57;;
15246;SDS011;7726;48.820;9.248;2024-02-14T08:07:29;3.50;;;2.57;;
15246;SDS011;7726;48.820;9.248;2024-02-14T08:09:58;2.73;;;2.47;;
15246;SDS011;7726;48.820;9.248;2024-02-14T08:12:25;4.53;;;2.63;;
15246;SDS011;7726;48.820;9.248;2024-02-14T08:14:52;3.85;;;2.40;;
15246;SDS011;7726;48.820;9.248;2024-02-14T08:17:19;3.40;;;2.35;;
15246;SDS011;7726;48.820;9.248;2024-02-14T08:19:47;3.40;;;2.40;;
15246;SDS011;7726;48.820;9.248;2024-02-14T08:22:14;4.83;;;2.47;;
15246;SDS011;7726;48.820;9.248;2024-02-14T08:24:41;5.20;;;3.45;;
15246;SDS011;7726;48.820;9.248;2024-02-14T08:27:10;5.30;;;2.80;;
15246;SDS011;7726;48.820;9.248;2024-02-14T08:29:37;3.27;;;2.20;;
15246;SDS011;7726;48.820;9.248;2024-02-14T08:32:04;7.17;;;2.70;;
15246;SDS011;7726;48.820;9.248;2024-02-14T08:34:31;5.65;;;2.97;;
15246;SDS011;7726;48.820;9.248;2024-02-14T08:36:58;6.03;;;3.20;;
15246;SDS011;7726;48.820;9.248;2024-02-14T08:39:26;4.88;;;3.45;;
15246;SDS011;7726;48.820;9.248;2024-02-14T08:41:53;3.80;;;2.50;;
15246;SDS011;7726;48.820;9.248;2024-02-14T08:44:21;6.93;;;2.90;;
15246;SDS011;7726;48.820;9.248;2024-02-14T08:46:48;5.13;;;2.97;;
15246;SDS011;7726;48.820;9.248;2024-02-14T08:49:16;4.37;;;2.77;;
15246;SDS011;7726;48.820;9.248;2024-02-14T08:51:43;6.50;;;3.17;;
15246;SDS011;7726;48.820;9.248;2024-02-14T08:54:11;4.93;;;3.17;;
15246;SDS011;7726;48.820;9.248;2024-02-14T08:56:38;5.93;;;2.90;;
15246;SDS011;7726;48.820;9.248;2024-02-14T08:59:06;3.77;;;3.37;;
15246;SDS011;7726;48.820;9.248;2024-02-14T09:01:34;5.40;;;3.30;;
15246;SDS011;7726;48.820;9.248;2024-02-14T09:04:01;8.18;;;3.17;;
15246;SDS011;7726;48.820;9.248;2024-02-14T09:06:28;4.93;;;3.17;;
15246;SDS011;7726;48.820;9.248;2024-02-14T09:08:57;3.88;;;2.63;;
15246;SDS011;7726;48.820;9.248;2024-02-14T09:11:24;4.15;;;2.88;;
15246;SDS011;7726;48.820;9.248;2024-02-14T09:13:52;5.00;;;2.67;;
15246;SDS011;7726;48.820;9.248;2024-02-14T09:16:21;5.05;;;2.53;;
15246;SDS011;7726;48.820;9.248;2024-02-14T09:18:49;4.63;;;2.40;;
15246;SDS011;7726;48.820;9.248;2024-02-14T09:21:16;3.00;;;2.70;;
15246;SDS011;7726;48.820;9.248;2024-02-14T09:23:46;3.38;;;2.67;;
15246;SDS011;7726;48.820;9.248;2024-02-14T09:26:13;3.28;;;2.65;;
15246;SDS011;7726;48.820;9.248;2024-02-14T09:28:41;6.65;;;2.75;;
15246;SDS011;7726;48.820;9.248;2024-02-14T09:31:08;3.30;;;2.58;;
15246;SDS011;7726;48.820;9.248;2024-02-14T09:33:37;4.68;;;2.30;;
15246;SDS011;7726;48.820;9.248;2024-02-14T09:36:06;3.08;;;2.35;;
15246;SDS011;7726;48.820;9.248;2024-02-14T09:38:33;2.50;;;2.15;;
15246;SDS011;7726;48.820;9.248;2024-02-14T09:41:02;4.40;;;2.72;;
15246;SDS011;7726;48.820;9.248;2024-02-14T09:43:34;3.70;;;2.25;;
15246;SDS011;7726;48.820;9.248;2024-02-14T09:46:02;6.32;;;2.80;;
15246;SDS011;7726;48.820;9.248;2024-02-14T09:48:29;4.72;;;2.80;;
15246;SDS011;7726;48.820;9.248;2024-02-14T09:50:57;4.13;;;2.22;;
15246;SDS011;7726;48.820;9.248;2024-02-14T09:53:25;5.10;;;2.40;;
15246;SDS011;7726;48.820;9.248;2024-02-14T09:55:53;4.72;;;2.38;;
15246;SDS011;7726;48.820;9.248;2024-02-14T09:58:21;4.63;;;2.00;;
15246;SDS011;7726;48.820;9.248;2024-02-14T10:00:49;3.15;;;2.70;;
15246;SDS011;7726;48.820;9.248;2024-02-14T10:03:16;2.05;;;1.85;;
15246;SDS011;7726;48.820;9.248;2024-02-14T10:05:43;5.00;;;2.20;;
15246;SDS011;7726;48.820;9.248;2024-02-14T10:08:11;2.33;;;2.13;;
15246;SDS011;7726;48.820;9.248;2024-02-14T10:10:39;2.65;;;2.38;;
15246;SDS011;7726;48.820;9.248;2024-02-14T10:13:07;2.35;;;1.98;;
15246;SDS011;7726;48.820;9.248;2024-02-14T10:15:34;3.13;;;2.10;;
15246;SDS011;7726;48.820;9.248;2024-02-14T10:18:03;3.03;;;2.20;;
15246;SDS011;7726;48.820;9.248;2024-02-14T10:20:30;4.20;;;2.20;;
15246;SDS011;7726;48.820;9.248;2024-02-14T10:23:02;4.10;;;2.22;;
15246;SDS011;7726;48.820;9.248;2024-02-14T10:25:29;3.58;;;1.67;;
15246;SDS011;7726;48.820;9.248;2024-02-14T10:28:02;4.30;;;1.80;;
15246;SDS011;7726;48.820;9.248;2024-02-14T10:30:30;7.43;;;2.10;;
15246;SDS011;7726;48.820;9.248;2024-02-14T10:32:58;5.10;;;2.42;;
15246;SDS011;7726;48.820;9.248;2024-02-14T10:35:26;3.53;;;1.77;;
15246;SDS011;7726;48.820;9.248;2024-02-14T10:37:54;2.88;;;1.50;;
15246;SDS011;7726;48.820;9.248;2024-02-14T10:40:26;3.85;;;1.90;;
15246;SDS011;7726;48.820;9.248;2024-02-14T10:42:53;3.38;;;1.77;;
15246;SDS011;7726;48.820;9.248;2024-02-14T10:45:24;2.40;;;1.00;;
15246;SDS011;7726;48.820;9.248;2024-02-14T10:47:52;1.60;;;1.20;;
15246;SDS011;7726;48.820;9.248;2024-02-14T10:50:21;2.30;;;1.15;;
15246;SDS011;7726;48.820;9.248;2024-02-14T10:52:48;1.35;;;1.20;;
15246;SDS011;7726;48.820;9.248;2024-02-14T10:55:16;2.60;;;1.00;;
15246;SDS011;7726;48.820;9.248;2024-02-14T10:57:44;1.50;;;1.25;;
15246;SDS011;7726;48.820;9.248;2024-02-14T11:00:12;1.50;;;1.02;;
15246;SDS011;7726;48.820;9.248;2024-02-14T11:02:44;1.10;;;0.88;;
15246;SDS011;7726;48.820;9.248;2024-02-14T11:05:12;1.52;;;1.00;;
15246;SDS011;7726;48.820;9.248;2024-02-14T11:07:43;2.90;;;1.33;;
15246;SDS011;7726;48.820;9.248;2024-02-14T11:10:13;1.50;;;1.40;;
15246;SDS011;7726;48.820;9.248;2024-02-14T11:12:40;3.00;;;1.45;;
15246;SDS011;7726;48.820;9.248;2024-02-14T11:15:10;3.58;;;1.55;;
15246;SDS011;7726;48.820;9.248;2024-02-14T11:17:38;2.42;;;1.45;;
15246;SDS011;7726;48.820;9.248;2024-02-14T11:20:15;1.52;;;1.30;;
15246;SDS011;7726;48.820;9.248;2024-02-14T11:22:54;2.30;;;1.30;;
15246;SDS011;7726;48.820;9.248;2024-02-14T11:25:22;2.20;;;1.48;;
15246;SDS011;7726;48.820;9.248;2024-02-14T11:27:50;1.48;;;1.38;;
15246;SDS011;7726;48.820;9.248;2024-02-14T11:30:28;1.55;;;1.10;;
15246;SDS011;7726;48.820;9.248;2024-02-14T11:33:06;2.00;;;1.10;;
15246;SDS011;7726;48.820;9.248;2024-02-14T11:35:34;1.63;;;1.30;;
15246;SDS011;7726;48.820;9.248;2024-02-14T11:38:01;1.98;;;1.05;;
15246;SDS011;7726;48.820;9.248;2024-02-14T11:40:29;3.45;;;1.02;;
15246;SDS011;7726;48.820;9.248;2024-02-14T11:42:56;1.05;;;0.95;;
15246;SDS011;7726;48.820;9.248;2024-02-14T11:45:23;1.73;;;1.20;;
15246;SDS011;7726;48.820;9.248;2024-02-14T11:47:50;0.88;;;0.88;;
15246;SDS011;7726;48.820;9.248;2024-02-14T11:50:17;1.98;;;0.95;;
15246;SDS011;7726;48.820;9.248;2024-02-14T11:52:46;1.17;;;0.95;;
15246;SDS011;7726;48.820;9.248;2024-02-14T11:55:16;1.58;;;0.88;;
15246;SDS011;7726;48.820;9.248;2024-02-14T11:57:44;1.48;;;1.10;;
15246;SDS011;7726;48.820;9.248;2024-02-14T12:00:13;0.80;;;0.80;;
15246;SDS011;7726;48.820;9.248;2024-02-14T12:02:40;2.50;;;0.80;;
15246;SDS011;7726;48.820;9.248;2024-02-14T12:05:08;1.00;;;0.90;;
15246;SDS011;7726;48.820;9.248;2024-02-14T12:07:35;1.35;;;1.00;;
15246;SDS011;7726;48.820;9.248;2024-02-14T12:10:04;1.23;;;1.00;;
15246;SDS011;7726;48.820;9.248;2024-02-14T12:12:32;1.45;;;0.80;;
15246;SDS011;7726;48.820;9.248;2024-02-14T12:15:01;0.98;;;0.88;;
15246;SDS011;7726;48.820;9.248;2024-02-14T12:17:29;0.52;;;0.52;;
15246;SDS011;7726;48.820;9.248;2024-02-14T12:20:04;2.25;;;0.82;;
15246;SDS011;7726;48.820;9.248;2024-02-14T12:22:32;1.10;;;0.88;;
15246;SDS011;7726;48.820;9.248;2024-02-14T12:24:59;0.98;;;0.80;;
15246;SDS011;7726;48.820;9.248;2024-02-14T12:27:31;1.55;;;0.90;;
15246;SDS011;7726;48.820;9.248;2024-02-14T12:29:59;1.73;;;0.75;;
15246;SDS011;7726;48.820;9.248;2024-02-14T12:32:26;1.55;;;0.90;;
15246;SDS011;7726;48.820;9.248;2024-02-14T12:34:55;0.88;;;0.88;;
15246;SDS011;7726;48.820;9.248;2024-02-14T12:37:22;0.70;;;0.70;;
15246;SDS011;7726;48.820;9.248;2024-02-14T12:39:49;0.88;;;0.63;;
15246;SDS011;7726;48.820;9.248;2024-02-14T12:42:18;1.20;;;0.73;;
15246;SDS011;7726;48.820;9.248;2024-02-14T12:44:51;1.52;;;0.60;;
15246;SDS011;7726;48.820;9.248;2024-02-14T12:47:19;0.68;;;0.68;;
15246;SDS011;7726;48.820;9.248;2024-02-14T12:49:47;0.65;;;0.50;;
15246;SDS011;7726;48.820;9.248;2024-02-14T12:52:14;0.98;;;0.63;;
15246;SDS011;7726;48.820;9.248;2024-02-14T12:54:43;1.38;;;0.70;;
15246;SDS011;7726;48.820;9.248;2024-02-14T12:57:10;1.52;;;1.17;;
15246;SDS011;7726;48.820;9.248;2024-02-14T12:59:37;0.73;;;0.70;;
15246;SDS011;7726;48.820;9.248;2024-02-14T13:02:06;0.95;;;0.60;;
15246;SDS011;7726;48.820;9.248;2024-02-14T13:04:33;1.55;;;0.70;;
15246;SDS011;7726;48.820;9.248;2024-02-14T13:07:00;0.98;;;0.60;;
15246;SDS011;7726;48.820;9.248;2024-02-14T13:09:28;2.30;;;0.52;;
15246;SDS011;7726;48.820;9.248;2024-02-14T13:11:55;0.63;;;0.50;;
15246;SDS011;7726;48.820;9.248;2024-02-14T13:14:22;0.52;;;0.52;;
15246;SDS011;7726;48.820;9.248;2024-02-14T13:16:49;1.00;;;1.00;;
15246;SDS011;7726;48.820;9.248;2024-02-14T13:19:18;0.52;;;0.52;;
15246;SDS011;7726;48.820;9.248;2024-02-14T13:21:46;0.52;;;0.52;;
15246;SDS011;7726;48.820;9.248;2024-02-14T13:24:13;0.60;;;0.43;;
15246;SDS011;7726;48.820;9.248;2024-02-14T13:26:40;1.20;;;0.57;;
15246;SDS011;7726;48.820;9.248;2024-02-14T13:29:07;0.40;;;0.40;;
15246;SDS011;7726;48.820;9.248;2024-02-14T13:31:34;0.40;;;0.40;;
15246;SDS011;7726;48.820;9.248;2024-02-14T13:34:02;2.05;;;0.40;;
15246;SDS011;7726;48.820;9.248;2024-02-14T13:36:31;0.75;;;0.60;;
15246;SDS011;7726;48.820;9.248;2024-02-14T13:38:58;0.63;;;0.52;;
15246;SDS011;7726;48.820;9.248;2024-02-14T13:41:26;1.85;;;0.57;;
15246;SDS011;7726;48.820;9.248;2024-02-14T13:43:53;0.60;;;0.52;;
15246;SDS011;7726;48.820;9.248;2024-02-14T13:46:20;0.50;;;0.50;;
15246;SDS011;7726;48.820;9.248;2024-02-14T13:48:48;0.75;;;0.40;;
15246;SDS011;7726;48.820;9.248;2024-02-14T13:51:15;0.93;;;0.57;;
15246;SDS011;7726;48.820;9.248;2024-02-14T13:53:44;1.02;;;0.93;;
15246;SDS011;7726;48.820;9.248;2024-02-14T13:56:11;1.42;;;0.73;;
15246;SDS011;7726;48.820;9.248;2024-02-14T13:58:38;0.88;;;0.60;;
15246;SDS011;7726;48.820;9.248;2024-02-14T14:01:05;0.50;;;0.50;;
15246;SDS011;7726;48.820;9.248;2024-02-14T14:03:32;1.58;;;0.50;;
15246;SDS011;7726;48.820;9.248;2024-02-14T14:06:02;0.40;;;0.40;;
15246;SDS011;7726;48.820;9.248;2024-02-14T14:08:30;1.08;;;0.73;;
15246;SDS011;7726;48.820;9.248;2024-02-14T14:10:58;0.40;;;0.40;;
15246;SDS011;7726;48.820;9.248;2024-02-14T14:13:26;0.90;;;0.50;;
15246;SDS011;7726;48.820;9.248;2024-02-14T14:15:55;0.82;;;0.40;;
15246;SDS011;7726;48.820;9.248;2024-02-14T14:18:23;1.17;;;0.50;;
15246;SDS011;7726;48.820;9.248;2024-02-14T14:20:50;0.50;;;0.35;;
15246;SDS011;7726;48.820;9.248;2024-02-14T14:23:17;0.50;;;0.40;;
15246;SDS011;7726;48.820;9.248;2024-02-14T14:25:44;0.40;;;0.40;;
15246;SDS011;7726;48.820;9.248;2024-02-14T14:28:13;1.23;;;0.30;;
15246;SDS011;7726;48.820;9.248;2024-02-14T14:30:40;0.32;;;0.32;;
15246;SDS011;7726;48.820;9.248;2024-02-14T14:33:07;0.40;;;0.40;;
15246;SDS011;7726;48.820;9.248;2024-02-14T14:35:34;0.30;;;0.30;;
15246;SDS011;7726;48.820;9.248;2024-02-14T14:38:02;0.65;;;0.52;;
15246;SDS011;7726;48.820;9.248;2024-02-14T14:40:29;4.13;;;0.80;;
15246;SDS011;7726;48.820;9.248;2024-02-14T14:42:56;0.47;;;0.47;;
15246;SDS011;7726;48.820;9.248;2024-02-14T14:45:25;1.02;;;0.32;;
15246;SDS011;7726;48.820;9.248;2024-02-14T14:47:54;0.68;;;0.60;;
15246;SDS011;7726;48.820;9.248;2024-02-14T14:50:21;0.80;;;0.32;;
15246;SDS011;7726;48.820;9.248;2024-02-14T14:52:50;2.17;;;0.47;;
15246;SDS011;7726;48.820;9.248;2024-02-14T14:55:16;0.52;;;0.43;;
15246;SDS011;7726;48.820;9.248;2024-02-14T14:57:43;0.43;;;0.38;;
15246;SDS011;7726;48.820;9.248;2024-02-14T15:00:11;0.40;;;0.40;;
15246;SDS011;7726;48.820;9.248;2024-02-14T15:02:40;0.30;;;0.30;;
15246;SDS011;7726;48.820;9.248;2024-02-14T15:05:08;1.05;;;0.95;;